sensor_id;sensor_type;location;lat;lon;timestamp;temperature;humidity
44513;DHT22;30219;50.588;9.504;2023-02-10T00:02:21;-4.10;99.90
44513;DHT22;30219;50.588;9.504;2023-02-10T00:04:46;-4.00;99.90
44513;DHT22;30219;50.588;9.504;2023-02-10T00:07:12;-4.00;99.90
44513;DHT22;30219;50.588;9.504;2023-02-10T00:09:37;-4.00;99.90
44513;DHT22;30219;50.588;9.504;2023-02-10T00:12:03;-4.00;99.90
44513;DHT22;30219;50.588;9.504;2023-02-10T00:14:29;-3.90;99.90
44513;DHT22;30219;50.588;9.504;2023-02-10T00:16:55;-4.00;99.90
44513;DHT22;30219;50.588;9.504;2023-02-10T00:19:21;-4.10;99.90
44513;DHT22;30219;50.588;9.504;2023-02-10T00:21:47;-4.10;99.90
44513;DHT22;30219;50.588;9.504;2023-02-10T00:24:12;-4.10;99.90
44513;DHT22;30219;50.588;9.504;2023-02-10T00:26:38;-4.00;99.90
44513;DHT22;30219;50.588;9.504;2023-02-10T00:29:03;-4.10;99.90
44513;DHT22;30219;50.588;9.504;2023-02-10T00:31:29;-4.20;99.90
44513;DHT22;30219;50.588;9.504;2023-02-10T00:33:54;-4.20;99.90
44513;DHT22;30219;50.588;9.504;2023-02-10T00:36:20;-4.30;99.90
44513;DHT22;30219;50.588;9.504;2023-02-10T00:38:46;-4.30;99.90
44513;DHT22;30219;50.588;9.504;2023-02-10T00:41:13;-4.20;99.90
44513;DHT22;30219;50.588;9.504;2023-02-10T00:43:39;-4.20;99.90
44513;DHT22;30219;50.588;9.504;2023-02-10T00:46:05;-4.20;99.90
44513;DHT22;30219;50.588;9.504;2023-02-10T00:48:30;-4.20;99.90
44513;DHT22;30219;50.588;9.504;2023-02-10T00:50:56;-4.20;99.90
44513;DHT22;30219;50.588;9.504;2023-02-10T00:53:21;-4.20;99.90
44513;DHT22;30219;50.588;9.504;2023-02-10T00:55:47;-4.30;99.90
44513;DHT22;30219;50.588;9.504;2023-02-10T00:58:12;-4.30;99.90
44513;DHT22;30219;50.588;9.504;2023-02-10T01:00:38;-4.30;99.90
44513;DHT22;30219;50.588;9.504;2023-02-10T01:03:03;-4.30;99.90
44513;DHT22;30219;50.588;9.504;2023-02-10T01:05:29;-4.40;99.90
44513;DHT22;30219;50.588;9.504;2023-02-10T01:07:54;-4.40;99.90
44513;DHT22;30219;50.588;9.504;2023-02-10T01:10:21;-4.40;99.90
44513;DHT22;30219;50.588;9.504;2023-02-10T01:12:46;-4.40;99.90
44513;DHT22;30219;50.588;9.504;2023-02-10T01:15:12;-4.50;99.90
44513;DHT22;30219;50.588;9.504;2023-02-10T01:17:37;-4.50;99.90
44513;DHT22;30219;50.588;9.504;2023-02-10T01:20:03;-4.60;99.90
44513;DHT22;30219;50.588;9.504;2023-02-10T01:22:31;-4.60;99.90
44513;DHT22;30219;50.588;9.504;2023-02-10T01:24:56;-4.60;99.90
44513;DHT22;30219;50.588;9.504;2023-02-10T01:27:22;-4.70;99.90
44513;DHT22;30219;50.588;9.504;2023-02-10T01:29:47;-4.70;99.90
44513;DHT22;30219;50.588;9.504;2023-02-10T01:32:12;-4.80;99.90
44513;DHT22;30219;50.588;9.504;2023-02-10T01:34:38;-4.70;99.90
44513;DHT22;30219;50.588;9.504;2023-02-10T01:37:03;-4.60;99.90
44513;DHT22;30219;50.588;9.504;2023-02-10T01:39:29;-4.50;99.90
44513;DHT22;30219;50.588;9.504;2023-02-10T01:41:54;-4.50;99.90
44513;DHT22;30219;50.588;9.504;2023-02-10T01:46:45;-4.40;99.90
44513;DHT22;30219;50.588;9.504;2023-02-10T01:49:12;-4.30;99.90
44513;DHT22;30219;50.588;9.504;2023-02-10T01:51:44;-4.20;99.90
44513;DHT22;30219;50.588;9.504;2023-02-10T01:54:13;-4.10;99.90
44513;DHT22;30219;50.588;9.504;2023-02-10T01:56:39;-4.00;99.90
44513;DHT22;30219;50.588;9.504;2023-02-10T01:59:05;-3.90;99.90
44513;DHT22;30219;50.588;9.504;2023-02-10T02:01:31;-3.80;99.90
44513;DHT22;30219;50.588;9.504;2023-02-10T02:03:56;-3.80;99.90
44513;DHT22;30219;50.588;9.504;2023-02-10T02:06:22;-3.70;99.90
44513;DHT22;30219;50.588;9.504;2023-02-10T02:08:48;-3.70;99.90
44513;DHT22;30219;50.588;9.504;2023-02-10T02:13:47;-3.70;99.90
44513;DHT22;30219;50.588;9.504;2023-02-10T02:18:43;-3.60;99.90
44513;DHT22;30219;50.588;9.504;2023-02-10T02:33:56;-3.70;99.90
44513;DHT22;30219;50.588;9.504;2023-02-10T02:36:24;-3.60;99.90
44513;DHT22;30219;50.588;9.504;2023-02-10T02:38:51;-3.50;99.90
44513;DHT22;30219;50.588;9.504;2023-02-10T02:41:23;-3.50;99.90
44513;DHT22;30219;50.588;9.504;2023-02-10T02:43:49;-3.40;99.90
44513;DHT22;30219;50.588;9.504;2023-02-10T02:46:22;-3.30;99.90
44513;DHT22;30219;50.588;9.504;2023-02-10T02:49:08;-3.20;99.90
44513;DHT22;30219;50.588;9.504;2023-02-10T02:54:06;-3.10;99.90
44513;DHT22;30219;50.588;9.504;2023-02-10T02:56:37;-3.00;99.90
44513;DHT22;30219;50.588;9.504;2023-02-10T03:01:38;-2.90;99.90
44513;DHT22;30219;50.588;9.504;2023-02-10T03:04:05;-3.00;99.90
44513;DHT22;30219;50.588;9.504;2023-02-10T03:06:31;-2.90;99.90
44513;DHT22;30219;50.588;9.504;2023-02-10T03:08:56;-2.90;99.90
44513;DHT22;30219;50.588;9.504;2023-02-10T03:11:22;-2.90;99.90
44513;DHT22;30219;50.588;9.504;2023-02-10T03:13:47;-2.90;99.90
44513;DHT22;30219;50.588;9.504;2023-02-10T03:16:13;-2.90;99.90
44513;DHT22;30219;50.588;9.504;2023-02-10T03:18:38;-2.90;99.90
44513;DHT22;30219;50.588;9.504;2023-02-10T03:21:04;-2.90;99.90
44513;DHT22;30219;50.588;9.504;2023-02-10T03:23:29;-2.90;99.90
44513;DHT22;30219;50.588;9.504;2023-02-10T03:25:57;-3.00;99.90
44513;DHT22;30219;50.588;9.504;2023-02-10T03:28:22;-2.90;99.90
44513;DHT22;30219;50.588;9.504;2023-02-10T03:30:48;-2.90;99.90
44513;DHT22;30219;50.588;9.504;2023-02-10T03:33:15;-2.90;99.90
44513;DHT22;30219;50.588;9.504;2023-02-10T03:35:42;-2.90;99.90
44513;DHT22;30219;50.588;9.504;2023-02-10T03:38:08;-2.90;99.90
44513;DHT22;30219;50.588;9.504;2023-02-10T03:40:33;-2.80;99.90
44513;DHT22;30219;50.588;9.504;2023-02-10T03:42:59;-2.90;99.90
44513;DHT22;30219;50.588;9.504;2023-02-10T03:45:24;-2.90;99.90
44513;DHT22;30219;50.588;9.504;2023-02-10T03:47:50;-3.00;99.90
44513;DHT22;30219;50.588;9.504;2023-02-10T03:50:15;-3.00;99.90
44513;DHT22;30219;50.588;9.504;2023-02-10T03:52:41;-3.00;99.90
44513;DHT22;30219;50.588;9.504;2023-02-10T03:55:06;-3.00;99.90
44513;DHT22;30219;50.588;9.504;2023-02-10T03:57:32;-3.00;99.90
44513;DHT22;30219;50.588;9.504;2023-02-10T03:59:57;-3.00;99.90
44513;DHT22;30219;50.588;9.504;2023-02-10T04:02:23;-3.00;99.90
44513;DHT22;30219;50.588;9.504;2023-02-10T04:04:49;-3.00;99.90
44513;DHT22;30219;50.588;9.504;2023-02-10T04:07:14;-2.90;99.90
44513;DHT22;30219;50.588;9.504;2023-02-10T04:09:40;-2.90;99.90
44513;DHT22;30219;50.588;9.504;2023-02-10T04:12:05;-2.90;99.90
44513;DHT22;30219;50.588;9.504;2023-02-10T04:14:31;-2.80;99.90
44513;DHT22;30219;50.588;9.504;2023-02-10T04:16:56;-2.80;99.90
44513;DHT22;30219;50.588;9.504;2023-02-10T04:19:22;-2.80;99.90
44513;DHT22;30219;50.588;9.504;2023-02-10T04:21:47;-2.80;99.90
44513;DHT22;30219;50.588;9.504;2023-02-10T04:24:13;-2.80;99.90
44513;DHT22;30219;50.588;9.504;2023-02-10T04:26:39;-2.70;99.90
44513;DHT22;30219;50.588;9.504;2023-02-10T04:29:04;-2.70;99.90
44513;DHT22;30219;50.588;9.504;2023-02-10T04:31:30;-2.70;99.90
44513;DHT22;30219;50.588;9.504;2023-02-10T04:33:55;-2.70;99.90
44513;DHT22;30219;50.588;9.504;2023-02-10T04:36:21;-2.60;99.90
44513;DHT22;30219;50.588;9.504;2023-02-10T04:38:46;-2.60;99.90
44513;DHT22;30219;50.588;9.504;2023-02-10T04:41:12;-2.50;99.90
44513;DHT22;30219;50.588;9.504;2023-02-10T04:43:37;-2.50;99.90
44513;DHT22;30219;50.588;9.504;2023-02-10T04:46:02;-2.50;99.90
44513;DHT22;30219;50.588;9.504;2023-02-10T04:48:29;-2.40;99.90
44513;DHT22;30219;50.588;9.504;2023-02-10T04:50:55;-2.50;99.90
44513;DHT22;30219;50.588;9.504;2023-02-10T04:53:20;-2.40;99.90
44513;DHT22;30219;50.588;9.504;2023-02-10T04:55:46;-2.30;99.90
44513;DHT22;30219;50.588;9.504;2023-02-10T04:58:11;-2.30;99.90
44513;DHT22;30219;50.588;9.504;2023-02-10T05:00:37;-2.30;99.90
44513;DHT22;30219;50.588;9.504;2023-02-10T05:03:02;-2.30;99.90
44513;DHT22;30219;50.588;9.504;2023-02-10T05:05:28;-2.20;99.90
44513;DHT22;30219;50.588;9.504;2023-02-10T05:07:53;-2.30;99.90
44513;DHT22;30219;50.588;9.504;2023-02-10T05:10:19;-2.20;99.90
44513;DHT22;30219;50.588;9.504;2023-02-10T05:12:45;-2.20;99.90
44513;DHT22;30219;50.588;9.504;2023-02-10T05:15:10;-2.20;99.90
44513;DHT22;30219;50.588;9.504;2023-02-10T05:17:38;-2.20;99.90
44513;DHT22;30219;50.588;9.504;2023-02-10T05:20:03;-2.10;99.90
44513;DHT22;30219;50.588;9.504;2023-02-10T05:22:29;-2.10;99.90
44513;DHT22;30219;50.588;9.504;2023-02-10T05:24:55;-2.10;99.90
44513;DHT22;30219;50.588;9.504;2023-02-10T05:27:22;-2.10;99.90
44513;DHT22;30219;50.588;9.504;2023-02-10T05:29:48;-2.10;99.90
44513;DHT22;30219;50.588;9.504;2023-02-10T05:32:14;-2.00;99.90
44513;DHT22;30219;50.588;9.504;2023-02-10T05:34:39;-2.10;99.90
44513;DHT22;30219;50.588;9.504;2023-02-10T05:37:05;-2.10;99.90
44513;DHT22;30219;50.588;9.504;2023-02-10T05:39:30;-2.10;99.90
44513;DHT22;30219;50.588;9.504;2023-02-10T05:41:56;-2.10;99.90
44513;DHT22;30219;50.588;9.504;2023-02-10T05:44:23;-2.00;99.90
44513;DHT22;30219;50.588;9.504;2023-02-10T05:46:49;-2.00;99.90
44513;DHT22;30219;50.588;9.504;2023-02-10T05:49:14;-2.00;99.90
44513;DHT22;30219;50.588;9.504;2023-02-10T05:51:40;-2.00;99.90
44513;DHT22;30219;50.588;9.504;2023-02-10T05:54:06;-2.00;99.90
44513;DHT22;30219;50.588;9.504;2023-02-10T05:56:31;-2.10;99.90
44513;DHT22;30219;50.588;9.504;2023-02-10T05:58:57;-2.00;99.90
44513;DHT22;30219;50.588;9.504;2023-02-10T06:01:23;-2.00;99.90
44513;DHT22;30219;50.588;9.504;2023-02-10T06:03:48;-1.90;99.90
44513;DHT22;30219;50.588;9.504;2023-02-10T06:06:14;-1.90;99.90
44513;DHT22;30219;50.588;9.504;2023-02-10T06:08:39;-2.00;99.90
44513;DHT22;30219;50.588;9.504;2023-02-10T06:11:04;-2.00;99.90
44513;DHT22;30219;50.588;9.504;2023-02-10T06:13:30;-1.90;99.90
44513;DHT22;30219;50.588;9.504;2023-02-10T06:15:55;-1.90;99.90
44513;DHT22;30219;50.588;9.504;2023-02-10T06:18:21;-1.90;99.90
44513;DHT22;30219;50.588;9.504;2023-02-10T06:20:47;-1.80;99.90
44513;DHT22;30219;50.588;9.504;2023-02-10T06:23:13;-1.70;99.90
44513;DHT22;30219;50.588;9.504;2023-02-10T06:25:38;-1.70;99.90
44513;DHT22;30219;50.588;9.504;2023-02-10T06:28:04;-1.70;99.90
44513;DHT22;30219;50.588;9.504;2023-02-10T06:30:29;-1.70;99.90
44513;DHT22;30219;50.588;9.504;2023-02-10T06:32:55;-1.70;99.90
44513;DHT22;30219;50.588;9.504;2023-02-10T06:35:20;-1.70;99.90
44513;DHT22;30219;50.588;9.504;2023-02-10T06:37:46;-1.60;99.90
44513;DHT22;30219;50.588;9.504;2023-02-10T06:40:11;-1.60;99.90
44513;DHT22;30219;50.588;9.504;2023-02-10T06:42:37;-1.60;99.90
44513;DHT22;30219;50.588;9.504;2023-02-10T06:45:03;-1.60;99.90
44513;DHT22;30219;50.588;9.504;2023-02-10T06:47:28;-1.60;99.90
44513;DHT22;30219;50.588;9.504;2023-02-10T06:49:54;-1.60;99.90
44513;DHT22;30219;50.588;9.504;2023-02-10T06:52:19;-1.60;99.90
44513;DHT22;30219;50.588;9.504;2023-02-10T06:54:45;-1.60;99.90
44513;DHT22;30219;50.588;9.504;2023-02-10T06:57:10;-1.60;99.90
44513;DHT22;30219;50.588;9.504;2023-02-10T06:59:36;-1.60;99.90
44513;DHT22;30219;50.588;9.504;2023-02-10T07:02:01;-1.60;99.90
44513;DHT22;30219;50.588;9.504;2023-02-10T07:04:27;-1.60;99.90
44513;DHT22;30219;50.588;9.504;2023-02-10T07:06:54;-1.60;99.90
44513;DHT22;30219;50.588;9.504;2023-02-10T07:09:19;-1.50;99.90
44513;DHT22;30219;50.588;9.504;2023-02-10T07:11:45;-1.50;99.90
44513;DHT22;30219;50.588;9.504;2023-02-10T07:14:10;-1.50;99.90
44513;DHT22;30219;50.588;9.504;2023-02-10T07:16:35;-1.50;99.90
44513;DHT22;30219;50.588;9.504;2023-02-10T07:19:01;-1.50;99.90
44513;DHT22;30219;50.588;9.504;2023-02-10T07:21:27;-1.40;99.90
44513;DHT22;30219;50.588;9.504;2023-02-10T07:23:53;-1.40;99.90
44513;DHT22;30219;50.588;9.504;2023-02-10T07:26:18;-1.40;99.90
44513;DHT22;30219;50.588;9.504;2023-02-10T07:28:44;-1.40;99.90
44513;DHT22;30219;50.588;9.504;2023-02-10T07:31:10;-1.40;99.90
44513;DHT22;30219;50.588;9.504;2023-02-10T07:33:35;-1.30;99.90
44513;DHT22;30219;50.588;9.504;2023-02-10T07:36:01;-1.30;99.90
44513;DHT22;30219;50.588;9.504;2023-02-10T07:38:28;-1.20;99.90
44513;DHT22;30219;50.588;9.504;2023-02-10T07:40:54;-1.10;99.90
44513;DHT22;30219;50.588;9.504;2023-02-10T07:43:19;-1.00;99.90
44513;DHT22;30219;50.588;9.504;2023-02-10T07:45:44;-0.90;99.90
44513;DHT22;30219;50.588;9.504;2023-02-10T07:48:10;-0.80;99.90
44513;DHT22;30219;50.588;9.504;2023-02-10T07:50:35;-0.90;99.90
44513;DHT22;30219;50.588;9.504;2023-02-10T07:53:01;-0.90;99.90
44513;DHT22;30219;50.588;9.504;2023-02-10T07:55:26;-0.80;99.90
44513;DHT22;30219;50.588;9.504;2023-02-10T07:57:52;-0.80;99.90
44513;DHT22;30219;50.588;9.504;2023-02-10T08:00:17;-0.70;99.90
44513;DHT22;30219;50.588;9.504;2023-02-10T08:02:43;-0.70;99.90
44513;DHT22;30219;50.588;9.504;2023-02-10T08:05:09;-0.60;99.90
44513;DHT22;30219;50.588;9.504;2023-02-10T08:07:35;-0.50;99.90
44513;DHT22;30219;50.588;9.504;2023-02-10T08:10:00;-0.40;99.90
44513;DHT22;30219;50.588;9.504;2023-02-10T08:12:26;-0.40;99.90
44513;DHT22;30219;50.588;9.504;2023-02-10T08:14:51;-0.40;99.90
44513;DHT22;30219;50.588;9.504;2023-02-10T08:17:17;-0.30;99.90
44513;DHT22;30219;50.588;9.504;2023-02-10T08:19:42;-0.30;99.90
44513;DHT22;30219;50.588;9.504;2023-02-10T08:22:08;-0.30;99.90
44513;DHT22;30219;50.588;9.504;2023-02-10T08:24:34;-0.30;99.90
44513;DHT22;30219;50.588;9.504;2023-02-10T08:26:59;-0.30;99.90
44513;DHT22;30219;50.588;9.504;2023-02-10T08:29:24;-0.30;99.90
44513;DHT22;30219;50.588;9.504;2023-02-10T08:31:50;-0.20;99.90
44513;DHT22;30219;50.588;9.504;2023-02-10T08:34:17;-0.10;99.90
44513;DHT22;30219;50.588;9.504;2023-02-10T08:36:43;-0.10;99.90
44513;DHT22;30219;50.588;9.504;2023-02-10T08:39:09;0.00;99.90
44513;DHT22;30219;50.588;9.504;2023-02-10T08:41:35;0.10;99.90
44513;DHT22;30219;50.588;9.504;2023-02-10T08:44:00;0.10;99.90
44513;DHT22;30219;50.588;9.504;2023-02-10T08:46:26;0.20;99.90
44513;DHT22;30219;50.588;9.504;2023-02-10T08:48:51;0.20;99.90
44513;DHT22;30219;50.588;9.504;2023-02-10T08:51:17;0.30;99.90
44513;DHT22;30219;50.588;9.504;2023-02-10T08:53:42;0.30;99.90
44513;DHT22;30219;50.588;9.504;2023-02-10T08:56:10;0.40;99.90
44513;DHT22;30219;50.588;9.504;2023-02-10T08:58:36;0.40;99.90
44513;DHT22;30219;50.588;9.504;2023-02-10T09:01:09;0.50;99.90
44513;DHT22;30219;50.588;9.504;2023-02-10T09:03:36;0.60;99.90
44513;DHT22;30219;50.588;9.504;2023-02-10T09:06:01;0.60;99.90
44513;DHT22;30219;50.588;9.504;2023-02-10T09:08:27;0.60;99.90
44513;DHT22;30219;50.588;9.504;2023-02-10T09:10:52;0.60;99.90
44513;DHT22;30219;50.588;9.504;2023-02-10T09:13:18;0.60;99.90
44513;DHT22;30219;50.588;9.504;2023-02-10T09:15:43;0.60;99.90
44513;DHT22;30219;50.588;9.504;2023-02-10T09:18:09;0.60;99.90
44513;DHT22;30219;50.588;9.504;2023-02-10T09:20:35;0.70;99.90
44513;DHT22;30219;50.588;9.504;2023-02-10T09:23:00;0.80;99.90
44513;DHT22;30219;50.588;9.504;2023-02-10T09:25:26;0.80;99.90
44513;DHT22;30219;50.588;9.504;2023-02-10T09:27:52;0.80;99.90
44513;DHT22;30219;50.588;9.504;2023-02-10T09:30:20;0.80;99.90
44513;DHT22;30219;50.588;9.504;2023-02-10T09:32:45;0.70;99.90
44513;DHT22;30219;50.588;9.504;2023-02-10T09:35:11;0.70;99.90
44513;DHT22;30219;50.588;9.504;2023-02-10T09:37:36;0.80;99.90
44513;DHT22;30219;50.588;9.504;2023-02-10T09:40:02;0.80;99.90
44513;DHT22;30219;50.588;9.504;2023-02-10T09:42:38;0.80;99.90
44513;DHT22;30219;50.588;9.504;2023-02-10T09:45:09;0.80;99.90
44513;DHT22;30219;50.588;9.504;2023-02-10T09:50:06;0.90;99.90
44513;DHT22;30219;50.588;9.504;2023-02-10T09:55:10;1.00;99.90
44513;DHT22;30219;50.588;9.504;2023-02-10T09:57:38;0.90;99.90
44513;DHT22;30219;50.588;9.504;2023-02-10T10:00:05;1.00;99.90
44513;DHT22;30219;50.588;9.504;2023-02-10T10:02:34;1.10;99.90
44513;DHT22;30219;50.588;9.504;2023-02-10T10:05:05;1.20;99.90
44513;DHT22;30219;50.588;9.504;2023-02-10T10:07:34;1.40;99.90
44513;DHT22;30219;50.588;9.504;2023-02-10T10:10:02;1.50;99.90
44513;DHT22;30219;50.588;9.504;2023-02-10T10:12:29;1.50;99.90
44513;DHT22;30219;50.588;9.504;2023-02-10T10:14:54;1.50;99.90
44513;DHT22;30219;50.588;9.504;2023-02-10T10:17:37;1.70;99.90
44513;DHT22;30219;50.588;9.504;2023-02-10T10:20:27;1.80;99.90
44513;DHT22;30219;50.588;9.504;2023-02-10T10:30:18;3.70;99.90
44513;DHT22;30219;50.588;9.504;2023-02-10T10:32:45;4.10;99.90
44513;DHT22;30219;50.588;9.504;2023-02-10T10:35:21;4.30;99.90
44513;DHT22;30219;50.588;9.504;2023-02-10T10:37:49;4.00;99.90
44513;DHT22;30219;50.588;9.504;2023-02-10T10:40:16;3.90;99.90
44513;DHT22;30219;50.588;9.504;2023-02-10T10:42:44;3.70;99.90
44513;DHT22;30219;50.588;9.504;2023-02-10T10:47:39;3.40;99.90
44513;DHT22;30219;50.588;9.504;2023-02-10T10:50:10;3.50;99.90
44513;DHT22;30219;50.588;9.504;2023-02-10T10:52:39;3.50;99.90
44513;DHT22;30219;50.588;9.504;2023-02-10T10:55:09;3.50;99.90
44513;DHT22;30219;50.588;9.504;2023-02-10T10:57:37;3.80;99.90
44513;DHT22;30219;50.588;9.504;2023-02-10T11:02:29;4.70;99.90
44513;DHT22;30219;50.588;9.504;2023-02-10T11:05:08;5.20;99.90
44513;DHT22;30219;50.588;9.504;2023-02-10T11:07:36;5.50;99.90
44513;DHT22;30219;50.588;9.504;2023-02-10T11:10:01;5.40;99.90
44513;DHT22;30219;50.588;9.504;2023-02-10T11:12:34;4.80;99.90
44513;DHT22;30219;50.588;9.504;2023-02-10T11:15:02;4.50;99.90
44513;DHT22;30219;50.588;9.504;2023-02-10T11:17:34;4.40;99.90
44513;DHT22;30219;50.588;9.504;2023-02-10T11:22:26;3.60;99.90
44513;DHT22;30219;50.588;9.504;2023-02-10T11:24:59;3.30;99.90
44513;DHT22;30219;50.588;9.504;2023-02-10T11:27:25;3.10;99.90
44513;DHT22;30219;50.588;9.504;2023-02-10T11:32:21;2.80;99.90
44513;DHT22;30219;50.588;9.504;2023-02-10T11:34:47;2.80;99.90
44513;DHT22;30219;50.588;9.504;2023-02-10T11:37:28;2.70;99.90
44513;DHT22;30219;50.588;9.504;2023-02-10T11:39:55;2.70;99.90
44513;DHT22;30219;50.588;9.504;2023-02-10T11:42:22;2.70;99.90
44513;DHT22;30219;50.588;9.504;2023-02-10T11:44:52;2.80;99.90
44513;DHT22;30219;50.588;9.504;2023-02-10T11:47:17;2.80;99.90
44513;DHT22;30219;50.588;9.504;2023-02-10T11:49:44;2.90;99.90
44513;DHT22;30219;50.588;9.504;2023-02-10T11:52:09;3.10;99.90
44513;DHT22;30219;50.588;9.504;2023-02-10T11:54:36;3.30;99.90
44513;DHT22;30219;50.588;9.504;2023-02-10T11:57:19;3.70;99.90
44513;DHT22;30219;50.588;9.504;2023-02-10T12:00:14;3.90;99.90
44513;DHT22;30219;50.588;9.504;2023-02-10T12:13:48;3.60;99.90
44513;DHT22;30219;50.588;9.504;2023-02-10T12:16:17;3.50;99.90
44513;DHT22;30219;50.588;9.504;2023-02-10T12:18:49;3.50;99.90
44513;DHT22;30219;50.588;9.504;2023-02-10T12:21:21;3.40;99.90
44513;DHT22;30219;50.588;9.504;2023-02-10T12:34:19;3.20;99.90
44513;DHT22;30219;50.588;9.504;2023-02-10T12:39:46;3.20;99.90
44513;DHT22;30219;50.588;9.504;2023-02-10T12:45:45;3.30;99.90
44513;DHT22;30219;50.588;9.504;2023-02-10T12:47:39;3.20;99.90
44513;DHT22;30219;50.588;9.504;2023-02-10T12:52:47;3.10;99.90
44513;DHT22;30219;50.588;9.504;2023-02-10T12:55:28;3.10;99.90
44513;DHT22;30219;50.588;9.504;2023-02-10T12:58:07;3.10;99.90
44513;DHT22;30219;50.588;9.504;2023-02-10T13:00:36;3.00;99.90
44513;DHT22;30219;50.588;9.504;2023-02-10T13:03:08;3.00;99.90
44513;DHT22;30219;50.588;9.504;2023-02-10T13:05:39;3.00;99.90
44513;DHT22;30219;50.588;9.504;2023-02-10T13:08:05;3.00;99.90
44513;DHT22;30219;50.588;9.504;2023-02-10T13:10:36;3.00;99.90
44513;DHT22;30219;50.588;9.504;2023-02-10T13:13:07;3.00;99.90
44513;DHT22;30219;50.588;9.504;2023-02-10T13:15:43;3.10;99.90
44513;DHT22;30219;50.588;9.504;2023-02-10T13:18:15;3.10;99.90
44513;DHT22;30219;50.588;9.504;2023-02-10T13:20:49;3.20;99.90
44513;DHT22;30219;50.588;9.504;2023-02-10T13:23:22;3.30;99.90
44513;DHT22;30219;50.588;9.504;2023-02-10T13:25:53;3.50;99.90
44513;DHT22;30219;50.588;9.504;2023-02-10T13:28:28;3.60;99.90
44513;DHT22;30219;50.588;9.504;2023-02-10T13:36:17;3.60;99.90
44513;DHT22;30219;50.588;9.504;2023-02-10T13:38:46;3.60;99.90
44513;DHT22;30219;50.588;9.504;2023-02-10T13:41:31;3.70;99.90
44513;DHT22;30219;50.588;9.504;2023-02-10T13:44:14;3.60;99.90
44513;DHT22;30219;50.588;9.504;2023-02-10T13:46:41;3.60;99.90
44513;DHT22;30219;50.588;9.504;2023-02-10T13:49:11;3.40;99.90
44513;DHT22;30219;50.588;9.504;2023-02-10T13:51:39;3.30;99.90
44513;DHT22;30219;50.588;9.504;2023-02-10T13:54:05;3.20;99.90
44513;DHT22;30219;50.588;9.504;2023-02-10T13:56:32;3.10;99.90
44513;DHT22;30219;50.588;9.504;2023-02-10T13:59:02;3.10;99.90
44513;DHT22;30219;50.588;9.504;2023-02-10T14:01:32;3.10;99.90
44513;DHT22;30219;50.588;9.504;2023-02-10T14:03:58;3.00;99.90
44513;DHT22;30219;50.588;9.504;2023-02-10T14:06:33;3.10;99.90
44513;DHT22;30219;50.588;9.504;2023-02-10T14:09:03;3.10;99.90
44513;DHT22;30219;50.588;9.504;2023-02-10T14:11:40;3.00;99.90
44513;DHT22;30219;50.588;9.504;2023-02-10T14:17:02;3.00;99.90
44513;DHT22;30219;50.588;9.504;2023-02-10T14:19:29;3.00;99.90
44513;DHT22;30219;50.588;9.504;2023-02-10T14:21:56;2.90;99.90
44513;DHT22;30219;50.588;9.504;2023-02-10T14:24:26;2.90;99.90
44513;DHT22;30219;50.588;9.504;2023-02-10T14:26:52;3.00;99.90
44513;DHT22;30219;50.588;9.504;2023-02-10T14:29:20;3.00;99.90
44513;DHT22;30219;50.588;9.504;2023-02-10T14:31:57;2.90;99.90
44513;DHT22;30219;50.588;9.504;2023-02-10T14:34:25;2.90;99.90
44513;DHT22;30219;50.588;9.504;2023-02-10T14:36:51;2.80;99.90
44513;DHT22;30219;50.588;9.504;2023-02-10T14:39:19;2.80;99.90
44513;DHT22;30219;50.588;9.504;2023-02-10T14:41:45;2.70;99.90
44513;DHT22;30219;50.588;9.504;2023-02-10T14:44:18;2.70;99.90
44513;DHT22;30219;50.588;9.504;2023-02-10T14:46:46;2.70;99.90
44513;DHT22;30219;50.588;9.504;2023-02-10T14:49:13;2.70;99.90
44513;DHT22;30219;50.588;9.504;2023-02-10T14:51:42;2.70;99.90
44513;DHT22;30219;50.588;9.504;2023-02-10T14:54:29;2.80;99.90
44513;DHT22;30219;50.588;9.504;2023-02-10T14:56:56;2.70;99.90
44513;DHT22;30219;50.588;9.504;2023-02-10T14:59:26;2.80;99.90
44513;DHT22;30219;50.588;9.504;2023-02-10T15:01:53;2.90;99.90
44513;DHT22;30219;50.588;9.504;2023-02-10T15:04:19;2.90;99.90
44513;DHT22;30219;50.588;9.504;2023-02-10T15:06:47;2.90;99.90
44513;DHT22;30219;50.588;9.504;2023-02-10T15:09:17;3.00;99.90
44513;DHT22;30219;50.588;9.504;2023-02-10T15:11:45;3.00;99.90
44513;DHT22;30219;50.588;9.504;2023-02-10T15:15:16;3.00;99.90
44513;DHT22;30219;50.588;9.504;2023-02-10T15:17:17;3.00;99.90
44513;DHT22;30219;50.588;9.504;2023-02-10T15:20:00;3.00;99.90
44513;DHT22;30219;50.588;9.504;2023-02-10T15:22:33;3.10;99.90
44513;DHT22;30219;50.588;9.504;2023-02-10T15:25:15;3.10;99.90
44513;DHT22;30219;50.588;9.504;2023-02-10T15:27:44;3.00;99.90
44513;DHT22;30219;50.588;9.504;2023-02-10T15:30:20;2.90;99.90
44513;DHT22;30219;50.588;9.504;2023-02-10T15:32:50;2.80;99.90
44513;DHT22;30219;50.588;9.504;2023-02-10T15:35:16;2.80;99.90
44513;DHT22;30219;50.588;9.504;2023-02-10T15:37:42;2.80;99.90
44513;DHT22;30219;50.588;9.504;2023-02-10T15:40:19;2.70;99.90
44513;DHT22;30219;50.588;9.504;2023-02-10T15:42:54;2.60;99.90
44513;DHT22;30219;50.588;9.504;2023-02-10T15:45:19;2.60;99.90
44513;DHT22;30219;50.588;9.504;2023-02-10T15:47:48;2.60;99.90
44513;DHT22;30219;50.588;9.504;2023-02-10T15:50:14;2.50;99.90
44513;DHT22;30219;50.588;9.504;2023-02-10T15:52:41;2.40;99.90
44513;DHT22;30219;50.588;9.504;2023-02-10T15:55:18;2.40;99.90
44513;DHT22;30219;50.588;9.504;2023-02-10T15:57:44;2.40;99.90
44513;DHT22;30219;50.588;9.504;2023-02-10T16:00:13;2.40;99.90
44513;DHT22;30219;50.588;9.504;2023-02-10T16:02:40;2.40;99.90
44513;DHT22;30219;50.588;9.504;2023-02-10T16:05:06;2.30;99.90
44513;DHT22;30219;50.588;9.504;2023-02-10T16:07:31;2.30;99.90
44513;DHT22;30219;50.588;9.504;2023-02-10T16:09:57;2.30;99.90
44513;DHT22;30219;50.588;9.504;2023-02-10T16:12:22;2.20;99.90
44513;DHT22;30219;50.588;9.504;2023-02-10T16:14:48;2.20;99.90
44513;DHT22;30219;50.588;9.504;2023-02-10T16:17:18;2.20;99.90
44513;DHT22;30219;50.588;9.504;2023-02-10T16:19:45;2.20;99.90
44513;DHT22;30219;50.588;9.504;2023-02-10T16:22:11;2.10;99.90
44513;DHT22;30219;50.588;9.504;2023-02-10T16:24:36;2.10;99.90
44513;DHT22;30219;50.588;9.504;2023-02-10T16:27:02;2.10;99.90
44513;DHT22;30219;50.588;9.504;2023-02-10T16:29:28;2.20;99.90
44513;DHT22;30219;50.588;9.504;2023-02-10T16:31:54;2.10;99.90
44513;DHT22;30219;50.588;9.504;2023-02-10T16:34:20;2.10;99.90
44513;DHT22;30219;50.588;9.504;2023-02-10T16:36:46;2.10;99.90
44513;DHT22;30219;50.588;9.504;2023-02-10T16:39:12;2.00;99.90
44513;DHT22;30219;50.588;9.504;2023-02-10T16:41:38;2.00;99.90
44513;DHT22;30219;50.588;9.504;2023-02-10T16:44:05;1.90;99.90
44513;DHT22;30219;50.588;9.504;2023-02-10T16:46:30;1.90;99.90
44513;DHT22;30219;50.588;9.504;2023-02-10T16:48:55;1.90;99.90
44513;DHT22;30219;50.588;9.504;2023-02-10T16:51:21;1.90;99.90
44513;DHT22;30219;50.588;9.504;2023-02-10T16:53:46;1.90;99.90
44513;DHT22;30219;50.588;9.504;2023-02-10T16:56:16;1.90;99.90
44513;DHT22;30219;50.588;9.504;2023-02-10T16:58:41;1.80;99.90
44513;DHT22;30219;50.588;9.504;2023-02-10T17:01:07;1.80;99.90
44513;DHT22;30219;50.588;9.504;2023-02-10T17:03:32;1.70;99.90
44513;DHT22;30219;50.588;9.504;2023-02-10T17:05:58;1.80;99.90